createdAt,value
2023-01-22T00:02:12.860Z,-0.87
2023-01-22T00:07:09.280Z,-0.91
2023-01-22T00:12:05.767Z,-0.90
2023-01-22T00:17:02.161Z,-0.95
2023-01-22T00:21:58.501Z,-0.94
2023-01-22T00:26:54.791Z,-0.92
2023-01-22T00:31:51.592Z,-0.90
2023-01-22T00:36:47.944Z,-0.93
2023-01-22T00:41:44.328Z,-0.92
2023-01-22T00:46:40.676Z,-0.91
2023-01-22T00:51:39.264Z,-0.84
2023-01-22T00:56:35.702Z,-0.86
2023-01-22T01:01:32.161Z,-0.85
2023-01-22T01:06:28.666Z,-0.91
2023-01-22T01:11:26.015Z,-0.90
2023-01-22T01:16:26.429Z,-0.95
2023-01-22T01:21:22.975Z,-0.91
2023-01-22T01:26:19.410Z,-0.86
2023-01-22T01:31:16.856Z,-0.90
2023-01-22T01:36:15.934Z,-0.95
2023-01-22T01:41:16.332Z,-0.94
2023-01-22T01:46:20.221Z,-0.92
2023-01-22T01:51:25.681Z,-0.86
2023-01-22T01:56:30.437Z,-0.86
2023-01-22T02:01:27.572Z,-0.83
2023-01-22T02:06:23.891Z,-0.80
2023-01-22T02:11:21.817Z,-0.84
2023-01-22T02:16:18.927Z,-0.86
2023-01-22T02:21:35.818Z,-0.81
2023-01-22T02:26:32.267Z,-0.79
2023-01-22T02:31:28.715Z,-0.76
2023-01-22T02:36:25.052Z,-0.80
2023-01-22T02:41:21.841Z,-0.81
2023-01-22T02:46:18.809Z,-0.77
2023-01-22T02:51:15.184Z,-0.76
2023-01-22T02:56:11.862Z,-0.76
2023-01-22T03:01:18.976Z,-0.76
2023-01-22T03:06:15.877Z,-0.68
2023-01-22T03:11:12.192Z,-0.72
2023-01-22T03:16:27.210Z,-0.69
2023-01-22T03:21:23.862Z,-0.66
2023-01-22T03:26:22.785Z,-0.63
2023-01-22T03:31:19.139Z,-0.58
2023-01-22T03:36:15.596Z,-0.58
2023-01-22T03:41:14.652Z,-0.57
2023-01-22T03:46:13.409Z,-0.64
2023-01-22T03:51:16.279Z,-0.63
2023-01-22T03:56:18.266Z,-0.55
2023-01-22T04:01:18.038Z,-0.54
2023-01-22T04:06:15.184Z,-0.55
2023-01-22T04:11:12.053Z,-0.54
2023-01-22T04:16:09.670Z,-0.58
2023-01-22T04:21:05.987Z,-0.58
2023-01-22T04:26:02.467Z,-0.58
2023-01-22T04:30:59.657Z,-0.60
2023-01-22T04:35:56.139Z,-0.62
2023-01-22T04:40:52.818Z,-0.64
2023-01-22T04:45:51.343Z,-0.67
2023-01-22T04:50:47.739Z,-0.71
2023-01-22T04:55:44.036Z,-0.72
2023-01-22T05:00:40.322Z,-0.74
2023-01-22T05:05:36.627Z,-0.75
2023-01-22T05:10:32.934Z,-0.75
2023-01-22T05:15:29.385Z,-0.74
2023-01-22T05:20:26.309Z,-0.73
2023-01-22T05:25:22.655Z,-0.77
2023-01-22T05:30:19.582Z,-0.73
2023-01-22T05:35:16.155Z,-0.76
2023-01-22T05:40:12.940Z,-0.77
2023-01-22T05:45:10.202Z,-0.68
2023-01-22T05:50:07.024Z,-0.74
2023-01-22T05:55:03.516Z,-0.71
2023-01-22T05:59:59.806Z,-0.72
2023-01-22T06:04:56.481Z,-0.66
2023-01-22T06:09:52.795Z,-0.68
2023-01-22T06:14:49.400Z,-0.73
2023-01-22T06:19:45.686Z,-0.68
2023-01-22T06:24:42.028Z,-0.61
2023-01-22T06:29:40.148Z,-0.66
2023-01-22T06:34:38.230Z,-0.67
2023-01-22T06:39:34.585Z,-0.70
2023-01-22T06:44:30.936Z,-0.71
2023-01-22T06:49:27.308Z,-0.68
2023-01-22T06:54:23.604Z,-0.73
2023-01-22T06:59:20.144Z,-0.69
2023-01-22T07:04:16.546Z,-0.69
2023-01-22T07:09:12.847Z,-0.64
2023-01-22T07:14:09.222Z,-0.69
2023-01-22T07:19:05.509Z,-0.69
2023-01-22T07:24:01.923Z,-0.64
2023-01-22T07:28:58.313Z,-0.70
2023-01-22T07:33:54.756Z,-0.59
2023-01-22T07:38:51.026Z,-0.61
2023-01-22T07:43:49.268Z,-0.63
2023-01-22T07:48:46.000Z,-0.63
2023-01-22T07:53:42.752Z,-0.61
2023-01-22T07:58:41.837Z,-0.66
2023-01-22T08:03:39.601Z,-0.58
2023-01-22T08:08:36.066Z,-0.57
2023-01-22T08:13:32.634Z,-0.58
2023-01-22T08:18:29.086Z,-0.57
2023-01-22T08:23:25.453Z,-0.61
2023-01-22T08:28:22.131Z,-0.43
2023-01-22T08:33:18.958Z,-0.53
2023-01-22T08:38:15.374Z,-0.51
2023-01-22T08:43:11.725Z,-0.53
2023-01-22T08:48:08.218Z,-0.51
2023-01-22T08:53:04.908Z,-0.38
2023-01-22T08:58:01.322Z,-0.43
2023-01-22T09:02:59.726Z,-0.43
2023-01-22T09:07:56.359Z,-0.34
2023-01-22T09:12:52.746Z,-0.21
2023-01-22T09:17:49.103Z,-0.27
2023-01-22T09:22:46.725Z,-0.25
2023-01-22T09:27:43.323Z,-0.25
2023-01-22T09:32:40.257Z,-0.19
2023-01-22T09:37:36.611Z,-0.19
2023-01-22T09:42:37.638Z,-0.11
2023-01-22T09:47:40.630Z,-0.06
2023-01-22T09:52:39.329Z,-0.09
2023-01-22T09:57:35.983Z,-0.11
2023-01-22T10:02:40.677Z,-0.11
2023-01-22T10:07:41.359Z,-0.05
2023-01-22T10:12:37.689Z,-0.09
2023-01-22T10:17:35.472Z,-0.06
2023-01-22T10:22:31.840Z,0.19
2023-01-22T10:27:39.384Z,0.31
2023-01-22T10:32:35.730Z,0.47
2023-01-22T10:37:45.007Z,0.21
2023-01-22T10:42:41.665Z,0.32
2023-01-22T10:47:38.085Z,0.56
2023-01-22T10:52:48.860Z,0.66
2023-01-22T10:57:51.518Z,0.73
2023-01-22T11:02:50.245Z,0.55
2023-01-22T11:07:51.843Z,0.56
2023-01-22T11:12:54.447Z,0.73
2023-01-22T11:17:57.722Z,0.55
2023-01-22T11:23:03.086Z,0.81
2023-01-22T11:28:15.810Z,0.89
2023-01-22T11:33:19.261Z,0.80
2023-01-22T11:38:51.870Z,0.62
2023-01-22T11:43:55.717Z,0.61
2023-01-22T11:49:19.609Z,0.58
2023-01-22T11:54:32.461Z,0.64
2023-01-22T11:59:50.580Z,0.72
2023-01-22T12:05:14.951Z,0.92
2023-01-22T12:11:00.213Z,0.77
2023-01-22T12:16:10.858Z,0.60
2023-01-22T12:21:50.889Z,0.68
2023-01-22T12:26:56.768Z,0.59
2023-01-22T12:32:05.264Z,0.53
2023-01-22T12:37:04.205Z,0.34
2023-01-22T12:42:18.330Z,0.29
2023-01-22T12:47:20.932Z,0.38
2023-01-22T12:52:39.418Z,0.33
2023-01-22T12:57:41.357Z,0.48
2023-01-22T13:02:38.886Z,0.59
2023-01-22T13:07:37.563Z,0.44
2023-01-22T13:12:45.527Z,0.45
2023-01-22T13:17:42.014Z,0.47
2023-01-22T13:22:38.441Z,0.40
2023-01-22T13:27:36.304Z,0.45
2023-01-22T13:32:32.658Z,0.33
2023-01-22T13:37:30.792Z,0.33
2023-01-22T13:42:27.785Z,0.31
2023-01-22T13:47:34.324Z,0.29
2023-01-22T13:52:33.078Z,0.30
2023-01-22T13:57:29.431Z,0.27
2023-01-22T14:02:31.646Z,0.38
2023-01-22T14:07:33.565Z,0.29
2023-01-22T14:12:30.417Z,0.24
2023-01-22T14:17:26.840Z,0.27
2023-01-22T14:22:24.273Z,0.40
2023-01-22T14:27:22.635Z,0.31
2023-01-22T14:32:19.198Z,0.34
2023-01-22T14:37:16.332Z,0.29
2023-01-22T14:42:12.817Z,0.30
2023-01-22T14:47:09.169Z,0.26
2023-01-22T14:52:05.599Z,0.26
2023-01-22T14:57:03.413Z,0.30
2023-01-22T15:01:59.852Z,0.29
2023-01-22T15:06:56.309Z,0.32
2023-01-22T15:11:52.626Z,0.26
2023-01-22T15:16:49.076Z,0.30
2023-01-22T15:21:46.312Z,0.32
2023-01-22T15:26:42.614Z,0.45
2023-01-22T15:31:39.538Z,0.39
2023-01-22T15:36:39.442Z,0.34
2023-01-22T15:41:37.084Z,0.39
2023-01-22T15:46:35.871Z,0.40
2023-01-22T15:51:32.275Z,0.40
2023-01-22T15:56:31.736Z,0.43
2023-01-22T16:01:29.224Z,0.44
2023-01-22T16:06:28.039Z,0.42
2023-01-22T16:11:26.507Z,0.40
2023-01-22T16:16:25.925Z,0.37
2023-01-22T16:21:23.055Z,0.42
2023-01-22T16:26:23.010Z,0.39
2023-01-22T16:31:23.291Z,0.39
2023-01-22T16:36:21.639Z,0.38
2023-01-22T16:41:28.063Z,0.42
2023-01-22T16:46:26.656Z,0.46
2023-01-22T16:51:25.146Z,0.46
2023-01-22T16:56:21.705Z,0.44
2023-01-22T17:01:18.268Z,0.45
2023-01-22T17:06:22.640Z,0.57
2023-01-22T17:11:19.455Z,0.54
2023-01-22T17:16:16.299Z,0.57
2023-01-22T17:21:15.592Z,0.57
2023-01-22T17:26:14.283Z,0.60
2023-01-22T17:31:15.247Z,0.61
2023-01-22T17:36:13.392Z,0.59
2023-01-22T17:41:18.575Z,0.55
2023-01-22T17:46:17.214Z,0.58
2023-01-22T17:51:16.765Z,0.50
2023-01-22T17:56:20.295Z,0.59
2023-01-22T18:01:19.157Z,0.47
2023-01-22T18:06:15.590Z,0.51
2023-01-22T18:11:15.041Z,0.54
2023-01-22T18:16:14.014Z,0.56
2023-01-22T18:21:14.421Z,0.58
2023-01-22T18:26:11.571Z,0.56
2023-01-22T18:31:14.730Z,0.53
2023-01-22T18:36:16.370Z,0.58
2023-01-22T18:41:15.266Z,0.62
2023-01-22T18:46:12.454Z,0.56
2023-01-22T18:51:12.987Z,0.61
2023-01-22T18:56:11.477Z,0.62
2023-01-22T19:01:19.817Z,0.59
2023-01-22T19:06:18.985Z,0.62
2023-01-22T19:11:16.375Z,0.69
2023-01-22T19:16:15.423Z,0.70
2023-01-22T19:21:17.885Z,0.67
2023-01-22T19:26:21.183Z,0.65
2023-01-22T19:31:24.527Z,0.57
2023-01-22T19:36:23.015Z,0.64
2023-01-22T19:41:19.761Z,0.74
2023-01-22T19:46:16.146Z,0.74
2023-01-22T19:51:15.105Z,0.63
2023-01-22T19:56:16.270Z,0.65
2023-01-22T20:01:13.614Z,0.57
2023-01-22T20:06:12.798Z,0.63
2023-01-22T20:11:11.045Z,0.62
2023-01-22T20:16:17.096Z,0.61
2023-01-22T20:21:14.450Z,0.60
2023-01-22T20:26:11.436Z,0.61
2023-01-22T20:31:12.719Z,0.55
2023-01-22T20:36:15.017Z,0.65
2023-01-22T20:41:12.304Z,0.61
2023-01-22T20:46:12.480Z,0.60
2023-01-22T20:51:15.614Z,0.59
2023-01-22T20:56:14.569Z,0.60
2023-01-22T21:01:18.870Z,0.67
2023-01-22T21:06:18.771Z,0.63
2023-01-22T21:11:17.959Z,0.66
2023-01-22T21:16:17.119Z,0.64
2023-01-22T21:21:17.857Z,0.63
2023-01-22T21:26:16.266Z,0.66
2023-01-22T21:31:14.711Z,0.66
2023-01-22T21:36:12.474Z,0.67
2023-01-22T21:41:12.483Z,0.66
2023-01-22T21:46:21.924Z,0.66
2023-01-22T21:51:19.021Z,0.61
2023-01-22T21:56:15.453Z,0.63
2023-01-22T22:01:15.288Z,0.68
2023-01-22T22:06:13.346Z,0.66
2023-01-22T22:11:10.937Z,0.65
2023-01-22T22:16:08.682Z,0.70
2023-01-22T22:21:08.131Z,0.80
2023-01-22T22:26:06.774Z,0.69
2023-01-22T22:31:13.821Z,0.66
2023-01-22T22:36:12.099Z,0.63
2023-01-22T22:41:13.614Z,0.56
2023-01-22T22:46:16.705Z,0.56
2023-01-22T22:51:19.962Z,0.53
2023-01-22T22:56:16.324Z,0.51
2023-01-22T23:01:15.519Z,0.50
2023-01-22T23:06:15.110Z,0.60
2023-01-22T23:11:14.479Z,0.58
2023-01-22T23:16:14.877Z,0.63
2023-01-22T23:21:14.495Z,0.66
2023-01-22T23:26:14.440Z,0.71
2023-01-22T23:31:13.225Z,0.72
2023-01-22T23:36:14.814Z,0.75
2023-01-22T23:41:16.158Z,0.82
2023-01-22T23:46:16.444Z,0.79
2023-01-22T23:51:14.712Z,0.77
2023-01-22T23:56:12.453Z,0.83
